sensor_id;sensor_type;location;lat;lon;timestamp;temperature;humidity
55211;DHT22;41082;52.822;6.666;2023-03-01T00:00:54;0.60;99.90
55211;DHT22;41082;52.822;6.666;2023-03-01T00:03:20;0.50;99.90
55211;DHT22;41082;52.822;6.666;2023-03-01T00:05:47;0.50;99.90
55211;DHT22;41082;52.822;6.666;2023-03-01T00:08:12;0.50;99.90
55211;DHT22;41082;52.822;6.666;2023-03-01T00:10:38;0.40;99.90
55211;DHT22;41082;52.822;6.666;2023-03-01T00:13:04;0.40;99.90
55211;DHT22;41082;52.822;6.666;2023-03-01T00:15:31;0.40;99.90
55211;DHT22;41082;52.822;6.666;2023-03-01T00:17:57;0.40;99.90
55211;DHT22;41082;52.822;6.666;2023-03-01T00:20:23;0.40;99.90
55211;DHT22;41082;52.822;6.666;2023-03-01T00:22:48;0.40;99.90
55211;DHT22;41082;52.822;6.666;2023-03-01T00:25:14;0.40;99.90
55211;DHT22;41082;52.822;6.666;2023-03-01T00:27:40;0.40;99.90
55211;DHT22;41082;52.822;6.666;2023-03-01T00:30:06;0.40;99.90
55211;DHT22;41082;52.822;6.666;2023-03-01T00:32:31;0.40;99.90
55211;DHT22;41082;52.822;6.666;2023-03-01T00:34:57;0.40;99.90
55211;DHT22;41082;52.822;6.666;2023-03-01T00:37:23;0.30;99.90
55211;DHT22;41082;52.822;6.666;2023-03-01T00:39:49;0.30;99.90
55211;DHT22;41082;52.822;6.666;2023-03-01T00:42:16;0.30;99.90
55211;DHT22;41082;52.822;6.666;2023-03-01T00:44:42;0.20;99.90
55211;DHT22;41082;52.822;6.666;2023-03-01T00:47:08;0.20;99.90
55211;DHT22;41082;52.822;6.666;2023-03-01T00:49:34;0.20;99.90
55211;DHT22;41082;52.822;6.666;2023-03-01T00:52:00;0.20;99.90
55211;DHT22;41082;52.822;6.666;2023-03-01T00:54:25;0.20;99.90
55211;DHT22;41082;52.822;6.666;2023-03-01T00:56:51;0.10;99.90
55211;DHT22;41082;52.822;6.666;2023-03-01T00:59:16;0.10;99.90
55211;DHT22;41082;52.822;6.666;2023-03-01T01:01:42;0.10;99.90
55211;DHT22;41082;52.822;6.666;2023-03-01T01:04:10;0.10;99.90
55211;DHT22;41082;52.822;6.666;2023-03-01T01:06:41;0.00;99.90
55211;DHT22;41082;52.822;6.666;2023-03-01T01:09:09;0.00;99.90
55211;DHT22;41082;52.822;6.666;2023-03-01T01:11:35;0.00;99.90
55211;DHT22;41082;52.822;6.666;2023-03-01T01:14:02;0.00;99.90
55211;DHT22;41082;52.822;6.666;2023-03-01T01:16:28;0.00;99.90
55211;DHT22;41082;52.822;6.666;2023-03-01T01:18:55;0.00;99.90
55211;DHT22;41082;52.822;6.666;2023-03-01T01:21:22;-0.10;99.90
55211;DHT22;41082;52.822;6.666;2023-03-01T01:23:49;-0.10;99.90
55211;DHT22;41082;52.822;6.666;2023-03-01T01:26:21;-0.10;99.90
55211;DHT22;41082;52.822;6.666;2023-03-01T01:28:47;-0.10;99.90
55211;DHT22;41082;52.822;6.666;2023-03-01T01:31:13;-0.10;99.90
55211;DHT22;41082;52.822;6.666;2023-03-01T01:33:39;-0.10;99.90
55211;DHT22;41082;52.822;6.666;2023-03-01T01:36:06;-0.10;99.90
55211;DHT22;41082;52.822;6.666;2023-03-01T01:38:32;-0.10;99.90
55211;DHT22;41082;52.822;6.666;2023-03-01T01:40:58;-0.10;99.90
55211;DHT22;41082;52.822;6.666;2023-03-01T01:46:04;-0.10;99.90
55211;DHT22;41082;52.822;6.666;2023-03-01T01:48:46;-0.20;99.90
55211;DHT22;41082;52.822;6.666;2023-03-01T01:51:23;-0.20;99.90
55211;DHT22;41082;52.822;6.666;2023-03-01T01:53:54;-0.20;99.90
55211;DHT22;41082;52.822;6.666;2023-03-01T01:56:24;-0.20;99.90
55211;DHT22;41082;52.822;6.666;2023-03-01T01:58:52;-0.20;99.90
55211;DHT22;41082;52.822;6.666;2023-03-01T02:01:18;-0.30;99.90
55211;DHT22;41082;52.822;6.666;2023-03-01T02:03:44;-0.30;99.90
55211;DHT22;41082;52.822;6.666;2023-03-01T02:06:37;-0.30;99.90
55211;DHT22;41082;52.822;6.666;2023-03-01T02:09:08;-0.30;99.90
55211;DHT22;41082;52.822;6.666;2023-03-01T02:11:36;-0.30;99.90
55211;DHT22;41082;52.822;6.666;2023-03-01T02:14:03;-0.30;99.90
55211;DHT22;41082;52.822;6.666;2023-03-01T02:16:29;-0.40;99.90
55211;DHT22;41082;52.822;6.666;2023-03-01T02:18:57;-0.40;99.90
55211;DHT22;41082;52.822;6.666;2023-03-01T02:21:48;-0.40;99.90
55211;DHT22;41082;52.822;6.666;2023-03-01T02:24:28;-0.40;99.90
55211;DHT22;41082;52.822;6.666;2023-03-01T02:26:57;-0.40;99.90
55211;DHT22;41082;52.822;6.666;2023-03-01T02:29:24;-0.40;99.90
55211;DHT22;41082;52.822;6.666;2023-03-01T02:31:52;-0.50;99.90
55211;DHT22;41082;52.822;6.666;2023-03-01T02:34:24;-0.50;99.90
55211;DHT22;41082;52.822;6.666;2023-03-01T02:37:01;-0.50;99.90
55211;DHT22;41082;52.822;6.666;2023-03-01T02:39:41;-0.50;99.90
55211;DHT22;41082;52.822;6.666;2023-03-01T02:42:12;-0.50;99.90
55211;DHT22;41082;52.822;6.666;2023-03-01T02:44:38;-0.50;99.90
55211;DHT22;41082;52.822;6.666;2023-03-01T02:47:04;-0.60;99.90
55211;DHT22;41082;52.822;6.666;2023-03-01T02:49:33;-0.50;99.90
55211;DHT22;41082;52.822;6.666;2023-03-01T02:52:13;-0.60;99.90
55211;DHT22;41082;52.822;6.666;2023-03-01T02:55:02;-0.60;99.90
55211;DHT22;41082;52.822;6.666;2023-03-01T02:57:31;-0.60;99.90
55211;DHT22;41082;52.822;6.666;2023-03-01T03:00:02;-0.60;99.90
55211;DHT22;41082;52.822;6.666;2023-03-01T03:02:33;-0.60;99.90
55211;DHT22;41082;52.822;6.666;2023-03-01T03:05:19;-0.60;99.90
55211;DHT22;41082;52.822;6.666;2023-03-01T03:07:47;-0.70;99.90
55211;DHT22;41082;52.822;6.666;2023-03-01T03:10:19;-0.70;99.90
55211;DHT22;41082;52.822;6.666;2023-03-01T03:12:50;-0.80;99.90
55211;DHT22;41082;52.822;6.666;2023-03-01T03:15:16;-0.80;99.90
55211;DHT22;41082;52.822;6.666;2023-03-01T03:17:43;-0.80;99.90
55211;DHT22;41082;52.822;6.666;2023-03-01T03:20:10;-0.80;99.90
55211;DHT22;41082;52.822;6.666;2023-03-01T03:22:40;-0.80;99.90
55211;DHT22;41082;52.822;6.666;2023-03-01T03:25:09;-0.90;99.90
55211;DHT22;41082;52.822;6.666;2023-03-01T03:27:37;-0.90;99.90
55211;DHT22;41082;52.822;6.666;2023-03-01T03:30:04;-0.90;99.90
55211;DHT22;41082;52.822;6.666;2023-03-01T03:32:36;-0.90;99.90
55211;DHT22;41082;52.822;6.666;2023-03-01T03:35:03;-0.90;99.90
55211;DHT22;41082;52.822;6.666;2023-03-01T03:37:38;-0.90;99.90
55211;DHT22;41082;52.822;6.666;2023-03-01T03:40:22;-0.90;99.90
55211;DHT22;41082;52.822;6.666;2023-03-01T03:42:48;-0.90;99.90
55211;DHT22;41082;52.822;6.666;2023-03-01T03:45:15;-0.90;99.90
55211;DHT22;41082;52.822;6.666;2023-03-01T03:47:41;-0.90;99.90
55211;DHT22;41082;52.822;6.666;2023-03-01T03:50:08;-0.90;99.90
55211;DHT22;41082;52.822;6.666;2023-03-01T03:52:34;-0.90;99.90
55211;DHT22;41082;52.822;6.666;2023-03-01T03:54:59;-0.90;99.90
55211;DHT22;41082;52.822;6.666;2023-03-01T03:57:25;-0.90;99.90
55211;DHT22;41082;52.822;6.666;2023-03-01T03:59:50;-1.00;99.90
55211;DHT22;41082;52.822;6.666;2023-03-01T04:02:16;-1.00;99.90
55211;DHT22;41082;52.822;6.666;2023-03-01T04:04:48;-1.00;99.90
55211;DHT22;41082;52.822;6.666;2023-03-01T04:07:17;-1.00;99.90
55211;DHT22;41082;52.822;6.666;2023-03-01T04:09:43;-1.00;99.90
55211;DHT22;41082;52.822;6.666;2023-03-01T04:12:10;-1.00;99.90
55211;DHT22;41082;52.822;6.666;2023-03-01T04:14:36;-1.00;99.90
55211;DHT22;41082;52.822;6.666;2023-03-01T04:17:02;-1.00;99.90
55211;DHT22;41082;52.822;6.666;2023-03-01T04:19:31;-1.00;99.90
55211;DHT22;41082;52.822;6.666;2023-03-01T04:22:02;-1.10;99.90
55211;DHT22;41082;52.822;6.666;2023-03-01T04:24:33;-1.10;99.90
55211;DHT22;41082;52.822;6.666;2023-03-01T04:26:58;-1.10;99.90
55211;DHT22;41082;52.822;6.666;2023-03-01T04:29:24;-1.00;99.90
55211;DHT22;41082;52.822;6.666;2023-03-01T04:31:49;-1.10;99.90
55211;DHT22;41082;52.822;6.666;2023-03-01T04:34:15;-1.10;99.90
55211;DHT22;41082;52.822;6.666;2023-03-01T04:36:40;-1.10;99.90
55211;DHT22;41082;52.822;6.666;2023-03-01T04:39:06;-1.10;99.90
55211;DHT22;41082;52.822;6.666;2023-03-01T04:41:38;-1.10;99.90
55211;DHT22;41082;52.822;6.666;2023-03-01T04:44:08;-1.20;99.90
55211;DHT22;41082;52.822;6.666;2023-03-01T04:46:35;-1.20;99.90
55211;DHT22;41082;52.822;6.666;2023-03-01T04:49:01;-1.20;99.90
55211;DHT22;41082;52.822;6.666;2023-03-01T04:51:27;-1.20;99.90
55211;DHT22;41082;52.822;6.666;2023-03-01T04:53:52;-1.20;99.90
55211;DHT22;41082;52.822;6.666;2023-03-01T04:56:18;-1.20;99.90
55211;DHT22;41082;52.822;6.666;2023-03-01T04:58:44;-1.20;99.90
55211;DHT22;41082;52.822;6.666;2023-03-01T05:01:12;-1.20;99.90
55211;DHT22;41082;52.822;6.666;2023-03-01T05:03:45;-1.30;99.90
55211;DHT22;41082;52.822;6.666;2023-03-01T05:06:11;-1.30;99.90
55211;DHT22;41082;52.822;6.666;2023-03-01T05:08:38;-1.20;99.90
55211;DHT22;41082;52.822;6.666;2023-03-01T05:11:04;-1.30;99.90
55211;DHT22;41082;52.822;6.666;2023-03-01T05:13:30;-1.30;99.90
55211;DHT22;41082;52.822;6.666;2023-03-01T05:15:59;-1.30;99.90
55211;DHT22;41082;52.822;6.666;2023-03-01T05:18:26;-1.30;99.90
55211;DHT22;41082;52.822;6.666;2023-03-01T05:20:53;-1.30;99.90
55211;DHT22;41082;52.822;6.666;2023-03-01T05:23:22;-1.30;99.90
55211;DHT22;41082;52.822;6.666;2023-03-01T05:25:47;-1.40;99.90
55211;DHT22;41082;52.822;6.666;2023-03-01T05:28:15;-1.40;99.90
55211;DHT22;41082;52.822;6.666;2023-03-01T05:30:41;-1.30;99.90
55211;DHT22;41082;52.822;6.666;2023-03-01T05:33:07;-1.40;99.90
55211;DHT22;41082;52.822;6.666;2023-03-01T05:35:42;-1.40;99.90
55211;DHT22;41082;52.822;6.666;2023-03-01T05:38:12;-1.40;99.90
55211;DHT22;41082;52.822;6.666;2023-03-01T05:40:39;-1.40;99.90
55211;DHT22;41082;52.822;6.666;2023-03-01T05:43:05;-1.40;99.90
55211;DHT22;41082;52.822;6.666;2023-03-01T05:45:31;-1.50;99.90
55211;DHT22;41082;52.822;6.666;2023-03-01T05:47:59;-1.50;99.90
55211;DHT22;41082;52.822;6.666;2023-03-01T05:50:28;-1.50;99.90
55211;DHT22;41082;52.822;6.666;2023-03-01T05:53:03;-1.40;99.90
55211;DHT22;41082;52.822;6.666;2023-03-01T05:55:30;-1.50;99.90
55211;DHT22;41082;52.822;6.666;2023-03-01T05:57:59;-1.50;99.90
55211;DHT22;41082;52.822;6.666;2023-03-01T06:00:25;-1.50;99.90
55211;DHT22;41082;52.822;6.666;2023-03-01T06:02:51;-1.50;99.90
55211;DHT22;41082;52.822;6.666;2023-03-01T06:05:19;-1.50;99.90
55211;DHT22;41082;52.822;6.666;2023-03-01T06:07:45;-1.50;99.90
55211;DHT22;41082;52.822;6.666;2023-03-01T06:10:12;-1.50;99.90
55211;DHT22;41082;52.822;6.666;2023-03-01T06:12:39;-1.50;99.90
55211;DHT22;41082;52.822;6.666;2023-03-01T06:15:06;-1.50;99.90
55211;DHT22;41082;52.822;6.666;2023-03-01T06:17:35;-1.50;99.90
55211;DHT22;41082;52.822;6.666;2023-03-01T06:20:04;-1.60;99.90
55211;DHT22;41082;52.822;6.666;2023-03-01T06:22:30;-1.50;99.90
55211;DHT22;41082;52.822;6.666;2023-03-01T06:24:56;-1.60;99.90
55211;DHT22;41082;52.822;6.666;2023-03-01T06:27:21;-1.60;99.90
55211;DHT22;41082;52.822;6.666;2023-03-01T06:29:47;-1.60;99.90
55211;DHT22;41082;52.822;6.666;2023-03-01T06:32:13;-1.60;99.90
55211;DHT22;41082;52.822;6.666;2023-03-01T06:34:38;-1.60;99.90
55211;DHT22;41082;52.822;6.666;2023-03-01T06:37:04;-1.50;99.90
55211;DHT22;41082;52.822;6.666;2023-03-01T06:39:31;-1.50;99.90
55211;DHT22;41082;52.822;6.666;2023-03-01T06:41:58;-1.50;99.90
55211;DHT22;41082;52.822;6.666;2023-03-01T06:44:23;-1.50;99.90
55211;DHT22;41082;52.822;6.666;2023-03-01T06:46:49;-1.50;99.90
55211;DHT22;41082;52.822;6.666;2023-03-01T06:49:15;-1.50;99.90
55211;DHT22;41082;52.822;6.666;2023-03-01T06:51:43;-1.50;99.90
55211;DHT22;41082;52.822;6.666;2023-03-01T06:54:09;-1.40;99.90
55211;DHT22;41082;52.822;6.666;2023-03-01T06:56:34;-1.40;99.90
55211;DHT22;41082;52.822;6.666;2023-03-01T06:59:00;-1.40;99.90
55211;DHT22;41082;52.822;6.666;2023-03-01T07:01:25;-1.40;99.90
55211;DHT22;41082;52.822;6.666;2023-03-01T07:03:51;-1.30;99.90
55211;DHT22;41082;52.822;6.666;2023-03-01T07:06:16;-1.30;99.90
55211;DHT22;41082;52.822;6.666;2023-03-01T07:08:43;-1.30;99.90
55211;DHT22;41082;52.822;6.666;2023-03-01T07:11:08;-1.30;99.90
55211;DHT22;41082;52.822;6.666;2023-03-01T07:13:34;-1.20;99.90
55211;DHT22;41082;52.822;6.666;2023-03-01T07:16:00;-1.10;99.90
55211;DHT22;41082;52.822;6.666;2023-03-01T07:18:25;-1.10;99.90
55211;DHT22;41082;52.822;6.666;2023-03-01T07:20:51;-1.10;99.90
55211;DHT22;41082;52.822;6.666;2023-03-01T07:23:17;-1.00;99.90
55211;DHT22;41082;52.822;6.666;2023-03-01T07:25:42;-1.00;99.90
55211;DHT22;41082;52.822;6.666;2023-03-01T07:28:08;-0.90;99.90
55211;DHT22;41082;52.822;6.666;2023-03-01T07:30:33;-0.90;99.90
55211;DHT22;41082;52.822;6.666;2023-03-01T07:32:59;-0.80;99.90
55211;DHT22;41082;52.822;6.666;2023-03-01T07:35:26;-0.70;99.90
55211;DHT22;41082;52.822;6.666;2023-03-01T07:37:52;-0.70;99.90
55211;DHT22;41082;52.822;6.666;2023-03-01T07:40:17;-0.60;99.90
55211;DHT22;41082;52.822;6.666;2023-03-01T07:42:43;-0.50;99.90
55211;DHT22;41082;52.822;6.666;2023-03-01T07:45:09;-0.50;99.90
55211;DHT22;41082;52.822;6.666;2023-03-01T07:47:35;-0.30;99.90
55211;DHT22;41082;52.822;6.666;2023-03-01T07:50:01;-0.30;99.90
55211;DHT22;41082;52.822;6.666;2023-03-01T07:52:27;-0.20;99.90
55211;DHT22;41082;52.822;6.666;2023-03-01T07:54:52;-0.10;99.90
55211;DHT22;41082;52.822;6.666;2023-03-01T07:57:18;0.00;99.90
55211;DHT22;41082;52.822;6.666;2023-03-01T07:59:43;0.10;99.90
55211;DHT22;41082;52.822;6.666;2023-03-01T08:02:10;0.20;99.90
55211;DHT22;41082;52.822;6.666;2023-03-01T08:04:36;0.30;99.90
55211;DHT22;41082;52.822;6.666;2023-03-01T08:07:04;0.40;99.90
55211;DHT22;41082;52.822;6.666;2023-03-01T08:09:30;0.50;99.90
55211;DHT22;41082;52.822;6.666;2023-03-01T08:11:57;0.60;99.90
55211;DHT22;41082;52.822;6.666;2023-03-01T08:14:25;0.70;99.90
55211;DHT22;41082;52.822;6.666;2023-03-01T08:16:50;0.80;99.90
55211;DHT22;41082;52.822;6.666;2023-03-01T08:19:16;0.90;99.90
55211;DHT22;41082;52.822;6.666;2023-03-01T08:21:41;1.00;99.90
55211;DHT22;41082;52.822;6.666;2023-03-01T08:24:07;1.10;99.90
55211;DHT22;41082;52.822;6.666;2023-03-01T08:26:33;1.10;99.90
55211;DHT22;41082;52.822;6.666;2023-03-01T08:29:00;1.20;99.90
55211;DHT22;41082;52.822;6.666;2023-03-01T08:31:30;1.30;99.90
55211;DHT22;41082;52.822;6.666;2023-03-01T08:33:58;1.40;99.90
55211;DHT22;41082;52.822;6.666;2023-03-01T08:36:30;1.50;99.90
55211;DHT22;41082;52.822;6.666;2023-03-01T08:38:56;1.50;99.90
55211;DHT22;41082;52.822;6.666;2023-03-01T08:41:22;1.60;99.90
55211;DHT22;41082;52.822;6.666;2023-03-01T08:43:48;1.70;99.90
55211;DHT22;41082;52.822;6.666;2023-03-01T08:46:14;1.80;99.90
55211;DHT22;41082;52.822;6.666;2023-03-01T08:48:39;1.80;99.90
55211;DHT22;41082;52.822;6.666;2023-03-01T08:51:13;1.90;99.90
55211;DHT22;41082;52.822;6.666;2023-03-01T08:53:39;2.00;99.90
55211;DHT22;41082;52.822;6.666;2023-03-01T08:56:06;2.00;99.90
55211;DHT22;41082;52.822;6.666;2023-03-01T08:58:32;2.10;99.90
55211;DHT22;41082;52.822;6.666;2023-03-01T09:00:57;2.20;99.90
55211;DHT22;41082;52.822;6.666;2023-03-01T09:03:24;2.20;99.90
55211;DHT22;41082;52.822;6.666;2023-03-01T09:05:51;2.30;99.90
55211;DHT22;41082;52.822;6.666;2023-03-01T09:08:17;2.30;99.90
55211;DHT22;41082;52.822;6.666;2023-03-01T09:10:43;2.40;99.90
55211;DHT22;41082;52.822;6.666;2023-03-01T09:13:08;2.50;99.90
55211;DHT22;41082;52.822;6.666;2023-03-01T09:15:37;2.50;99.90
55211;DHT22;41082;52.822;6.666;2023-03-01T09:18:02;2.60;99.90
55211;DHT22;41082;52.822;6.666;2023-03-01T09:20:28;2.70;99.90
55211;DHT22;41082;52.822;6.666;2023-03-01T09:22:56;2.80;99.90
55211;DHT22;41082;52.822;6.666;2023-03-01T09:25:21;2.90;99.90
55211;DHT22;41082;52.822;6.666;2023-03-01T09:27:50;2.90;99.90
55211;DHT22;41082;52.822;6.666;2023-03-01T09:30:16;3.00;99.90
55211;DHT22;41082;52.822;6.666;2023-03-01T09:32:42;3.10;99.90
55211;DHT22;41082;52.822;6.666;2023-03-01T09:35:08;3.20;99.90
55211;DHT22;41082;52.822;6.666;2023-03-01T09:37:35;3.20;99.90
55211;DHT22;41082;52.822;6.666;2023-03-01T09:40:01;3.30;99.90
55211;DHT22;41082;52.822;6.666;2023-03-01T09:42:29;3.40;99.90
55211;DHT22;41082;52.822;6.666;2023-03-01T09:45:11;3.50;99.90
55211;DHT22;41082;52.822;6.666;2023-03-01T09:47:40;3.50;99.90
55211;DHT22;41082;52.822;6.666;2023-03-01T09:50:13;3.60;99.90
55211;DHT22;41082;52.822;6.666;2023-03-01T09:52:46;3.70;99.90
55211;DHT22;41082;52.822;6.666;2023-03-01T09:55:15;3.80;99.90
55211;DHT22;41082;52.822;6.666;2023-03-01T09:57:48;3.80;99.90
55211;DHT22;41082;52.822;6.666;2023-03-01T10:00:18;3.90;99.90
55211;DHT22;41082;52.822;6.666;2023-03-01T10:02:49;4.00;99.90
55211;DHT22;41082;52.822;6.666;2023-03-01T10:10:38;4.30;99.90
55211;DHT22;41082;52.822;6.666;2023-03-01T10:15:56;4.30;99.90
55211;DHT22;41082;52.822;6.666;2023-03-01T10:18:32;4.40;99.90
55211;DHT22;41082;52.822;6.666;2023-03-01T10:21:00;4.40;99.90
55211;DHT22;41082;52.822;6.666;2023-03-01T10:23:29;4.50;99.90
55211;DHT22;41082;52.822;6.666;2023-03-01T10:31:32;4.60;99.90
55211;DHT22;41082;52.822;6.666;2023-03-01T10:34:48;4.70;99.90
55211;DHT22;41082;52.822;6.666;2023-03-01T10:36:50;4.70;99.90
55211;DHT22;41082;52.822;6.666;2023-03-01T10:39:22;4.70;99.90
55211;DHT22;41082;52.822;6.666;2023-03-01T10:44:41;4.80;99.90
55211;DHT22;41082;52.822;6.666;2023-03-01T10:47:14;4.90;99.90
55211;DHT22;41082;52.822;6.666;2023-03-01T10:50:17;4.90;99.90
55211;DHT22;41082;52.822;6.666;2023-03-01T10:52:41;4.90;99.90
55211;DHT22;41082;52.822;6.666;2023-03-01T10:57:39;5.10;99.90
55211;DHT22;41082;52.822;6.666;2023-03-01T11:00:20;5.20;99.90
55211;DHT22;41082;52.822;6.666;2023-03-01T11:05:25;5.30;99.90
55211;DHT22;41082;52.822;6.666;2023-03-01T11:07:59;5.30;99.90
55211;DHT22;41082;52.822;6.666;2023-03-01T11:10:33;5.40;99.90
55211;DHT22;41082;52.822;6.666;2023-03-01T11:13:15;5.40;99.90
55211;DHT22;41082;52.822;6.666;2023-03-01T11:15:41;5.50;99.90
55211;DHT22;41082;52.822;6.666;2023-03-01T11:18:21;5.50;99.90
55211;DHT22;41082;52.822;6.666;2023-03-01T11:20:48;5.50;99.90
55211;DHT22;41082;52.822;6.666;2023-03-01T11:23:17;5.60;99.90
55211;DHT22;41082;52.822;6.666;2023-03-01T11:25:49;5.60;99.90
55211;DHT22;41082;52.822;6.666;2023-03-01T11:28:19;5.70;99.90
55211;DHT22;41082;52.822;6.666;2023-03-01T11:31:05;5.80;99.90
55211;DHT22;41082;52.822;6.666;2023-03-01T11:33:37;5.80;99.90
55211;DHT22;41082;52.822;6.666;2023-03-01T11:38:39;5.90;99.90
55211;DHT22;41082;52.822;6.666;2023-03-01T11:41:14;5.90;99.90
55211;DHT22;41082;52.822;6.666;2023-03-01T12:00:24;6.10;99.90
55211;DHT22;41082;52.822;6.666;2023-03-01T12:18:14;6.20;99.90
55211;DHT22;41082;52.822;6.666;2023-03-01T12:20:51;6.20;99.90
55211;DHT22;41082;52.822;6.666;2023-03-01T12:26:33;6.20;99.90
55211;DHT22;41082;52.822;6.666;2023-03-01T12:31:54;6.30;99.90
55211;DHT22;41082;52.822;6.666;2023-03-01T12:40:32;6.30;99.90
55211;DHT22;41082;52.822;6.666;2023-03-01T12:46:15;6.30;99.90
55211;DHT22;41082;52.822;6.666;2023-03-01T12:48:59;6.30;99.90
55211;DHT22;41082;52.822;6.666;2023-03-01T12:51:31;6.40;99.90
55211;DHT22;41082;52.822;6.666;2023-03-01T12:53:59;6.30;99.90
55211;DHT22;41082;52.822;6.666;2023-03-01T12:56:29;6.30;99.90
55211;DHT22;41082;52.822;6.666;2023-03-01T12:59:16;6.30;99.90
55211;DHT22;41082;52.822;6.666;2023-03-01T13:01:51;6.30;99.90
55211;DHT22;41082;52.822;6.666;2023-03-01T13:13:00;6.40;99.90
55211;DHT22;41082;52.822;6.666;2023-03-01T13:15:28;6.50;99.90
55211;DHT22;41082;52.822;6.666;2023-03-01T13:17:57;6.50;99.90
55211;DHT22;41082;52.822;6.666;2023-03-01T13:26:12;6.60;99.90
55211;DHT22;41082;52.822;6.666;2023-03-01T13:28:45;6.60;99.90
55211;DHT22;41082;52.822;6.666;2023-03-01T13:33:51;6.60;99.90
55211;DHT22;41082;52.822;6.666;2023-03-01T13:38:58;6.70;99.90
55211;DHT22;41082;52.822;6.666;2023-03-01T13:46:45;6.70;99.90
55211;DHT22;41082;52.822;6.666;2023-03-01T13:49:16;6.80;99.90
55211;DHT22;41082;52.822;6.666;2023-03-01T13:51:46;6.80;99.90
55211;DHT22;41082;52.822;6.666;2023-03-01T13:54:14;6.80;99.90
55211;DHT22;41082;52.822;6.666;2023-03-01T13:56:40;6.90;99.90
55211;DHT22;41082;52.822;6.666;2023-03-01T13:59:17;7.00;99.90
55211;DHT22;41082;52.822;6.666;2023-03-01T14:01:42;7.00;99.90
55211;DHT22;41082;52.822;6.666;2023-03-01T14:04:30;7.00;99.90
55211;DHT22;41082;52.822;6.666;2023-03-01T14:07:22;7.00;99.90
55211;DHT22;41082;52.822;6.666;2023-03-01T14:09:58;7.00;99.90
55211;DHT22;41082;52.822;6.666;2023-03-01T14:15:29;7.00;99.90
55211;DHT22;41082;52.822;6.666;2023-03-01T14:18:04;7.00;99.90
55211;DHT22;41082;52.822;6.666;2023-03-01T14:20:37;7.00;99.90
55211;DHT22;41082;52.822;6.666;2023-03-01T14:23:12;7.10;99.90
55211;DHT22;41082;52.822;6.666;2023-03-01T14:25:38;7.10;99.90
55211;DHT22;41082;52.822;6.666;2023-03-01T14:28:25;7.00;99.90
55211;DHT22;41082;52.822;6.666;2023-03-01T14:30:55;7.10;99.90
55211;DHT22;41082;52.822;6.666;2023-03-01T14:33:53;7.00;99.90
55211;DHT22;41082;52.822;6.666;2023-03-01T14:36:26;7.10;99.90
55211;DHT22;41082;52.822;6.666;2023-03-01T14:38:52;7.10;99.90
55211;DHT22;41082;52.822;6.666;2023-03-01T14:41:23;7.10;99.90
55211;DHT22;41082;52.822;6.666;2023-03-01T14:43:50;7.10;99.90
55211;DHT22;41082;52.822;6.666;2023-03-01T14:46:21;7.10;99.90
55211;DHT22;41082;52.822;6.666;2023-03-01T14:48:53;7.10;99.90
55211;DHT22;41082;52.822;6.666;2023-03-01T14:51:20;7.10;99.90
55211;DHT22;41082;52.822;6.666;2023-03-01T14:53:45;7.10;99.90
55211;DHT22;41082;52.822;6.666;2023-03-01T14:56:16;7.10;99.90
55211;DHT22;41082;52.822;6.666;2023-03-01T14:58:46;7.00;99.90
55211;DHT22;41082;52.822;6.666;2023-03-01T15:01:16;7.10;99.90
55211;DHT22;41082;52.822;6.666;2023-03-01T15:03:48;7.10;99.90
55211;DHT22;41082;52.822;6.666;2023-03-01T15:06:18;7.10;99.90
55211;DHT22;41082;52.822;6.666;2023-03-01T15:08:47;7.00;99.90
55211;DHT22;41082;52.822;6.666;2023-03-01T15:13:40;7.00;99.90
55211;DHT22;41082;52.822;6.666;2023-03-01T15:16:07;7.00;99.90
55211;DHT22;41082;52.822;6.666;2023-03-01T15:18:34;7.00;99.90
55211;DHT22;41082;52.822;6.666;2023-03-01T15:21:21;7.00;99.90
55211;DHT22;41082;52.822;6.666;2023-03-01T15:26:31;6.90;99.90
55211;DHT22;41082;52.822;6.666;2023-03-01T15:28:59;6.90;99.90
55211;DHT22;41082;52.822;6.666;2023-03-01T15:31:28;6.80;99.90
55211;DHT22;41082;52.822;6.666;2023-03-01T15:34:09;6.80;99.90
55211;DHT22;41082;52.822;6.666;2023-03-01T15:36:45;6.80;99.90
55211;DHT22;41082;52.822;6.666;2023-03-01T15:41:55;6.70;99.90
55211;DHT22;41082;52.822;6.666;2023-03-01T15:44:31;6.70;99.90
55211;DHT22;41082;52.822;6.666;2023-03-01T15:46:57;6.70;99.90
55211;DHT22;41082;52.822;6.666;2023-03-01T15:51:53;6.70;99.90
55211;DHT22;41082;52.822;6.666;2023-03-01T15:54:22;6.70;99.90
55211;DHT22;41082;52.822;6.666;2023-03-01T15:56:49;6.60;99.90
55211;DHT22;41082;52.822;6.666;2023-03-01T15:59:16;6.60;99.90
55211;DHT22;41082;52.822;6.666;2023-03-01T16:01:42;6.60;99.90
55211;DHT22;41082;52.822;6.666;2023-03-01T16:04:10;6.60;99.90
55211;DHT22;41082;52.822;6.666;2023-03-01T16:06:38;6.60;99.90
55211;DHT22;41082;52.822;6.666;2023-03-01T16:09:05;6.60;99.90
55211;DHT22;41082;52.822;6.666;2023-03-01T16:11:30;6.60;99.90
55211;DHT22;41082;52.822;6.666;2023-03-01T16:13:57;6.60;99.90
55211;DHT22;41082;52.822;6.666;2023-03-01T16:16:23;6.60;99.90
55211;DHT22;41082;52.822;6.666;2023-03-01T16:18:49;6.50;99.90
55211;DHT22;41082;52.822;6.666;2023-03-01T16:21:22;6.50;99.90
55211;DHT22;41082;52.822;6.666;2023-03-01T16:23:49;6.50;99.90
55211;DHT22;41082;52.822;6.666;2023-03-01T16:26:14;6.50;99.90
55211;DHT22;41082;52.822;6.666;2023-03-01T16:28:41;6.40;99.90
55211;DHT22;41082;52.822;6.666;2023-03-01T16:31:07;6.50;99.90
55211;DHT22;41082;52.822;6.666;2023-03-01T16:33:32;6.40;99.90
55211;DHT22;41082;52.822;6.666;2023-03-01T16:36:09;6.40;99.90
55211;DHT22;41082;52.822;6.666;2023-03-01T16:38:34;6.30;99.90
55211;DHT22;41082;52.822;6.666;2023-03-01T16:41:00;6.40;99.90
55211;DHT22;41082;52.822;6.666;2023-03-01T16:43:26;6.40;99.90
55211;DHT22;41082;52.822;6.666;2023-03-01T16:45:51;6.30;99.90
55211;DHT22;41082;52.822;6.666;2023-03-01T16:48:17;6.30;99.90
55211;DHT22;41082;52.822;6.666;2023-03-01T16:50:43;6.30;99.90
55211;DHT22;41082;52.822;6.666;2023-03-01T16:53:09;6.20;99.90
55211;DHT22;41082;52.822;6.666;2023-03-01T16:55:35;6.20;99.90
55211;DHT22;41082;52.822;6.666;2023-03-01T16:58:01;6.10;99.90
55211;DHT22;41082;52.822;6.666;2023-03-01T17:00:27;6.10;99.90
55211;DHT22;41082;52.822;6.666;2023-03-01T17:02:53;6.00;99.90
55211;DHT22;41082;52.822;6.666;2023-03-01T17:05:19;6.00;99.90
55211;DHT22;41082;52.822;6.666;2023-03-01T17:07:46;6.00;99.90
55211;DHT22;41082;52.822;6.666;2023-03-01T17:10:12;5.90;99.90
55211;DHT22;41082;52.822;6.666;2023-03-01T17:12:37;5.80;99.90
55211;DHT22;41082;52.822;6.666;2023-03-01T17:15:04;5.80;99.90
55211;DHT22;41082;52.822;6.666;2023-03-01T17:17:30;5.70;99.90
55211;DHT22;41082;52.822;6.666;2023-03-01T17:19:56;5.70;99.90
55211;DHT22;41082;52.822;6.666;2023-03-01T17:22:22;5.60;99.90
55211;DHT22;41082;52.822;6.666;2023-03-01T17:24:48;5.60;99.90
55211;DHT22;41082;52.822;6.666;2023-03-01T17:27:14;5.50;99.90
55211;DHT22;41082;52.822;6.666;2023-03-01T17:29:40;5.50;99.90
55211;DHT22;41082;52.822;6.666;2023-03-01T17:32:07;5.40;99.90
55211;DHT22;41082;52.822;6.666;2023-03-01T17:34:33;5.40;99.90
55211;DHT22;41082;52.822;6.666;2023-03-01T17:36:59;5.40;99.90
55211;DHT22;41082;52.822;6.666;2023-03-01T17:39:24;5.30;99.90
55211;DHT22;41082;52.822;6.666;2023-03-01T17:41:53;5.20;99.90